sensor_id;sensor_type;location;lat;lon;timestamp;P1;durP1;ratioP1;P2;durP2;ratioP2
2476;SDS011;1249;51.270;6.756;2022-11-11T00:00:48;144.07;;;134.77;;
2476;SDS011;1249;51.270;6.756;2022-11-11T00:03:15;118.10;;;110.57;;
2476;SDS011;1249;51.270;6.756;2022-11-11T00:05:42;148.53;;;140.57;;
2476;SDS011;1249;51.270;6.756;2022-11-11T00:08:09;128.20;;;120.73;;
2476;SDS011;1249;51.270;6.756;2022-11-11T00:10:37;116.23;;;108.83;;
2476;SDS011;1249;51.270;6.756;2022-11-11T00:13:04;94.00;;;87.40;;
2476;SDS011;1249;51.270;6.756;2022-11-11T00:15:35;115.03;;;107.87;;
2476;SDS011;1249;51.270;6.756;2022-11-11T00:18:02;132.77;;;125.40;;
2476;SDS011;1249;51.270;6.756;2022-11-11T00:20:47;126.30;;;119.23;;
2476;SDS011;1249;51.270;6.756;2022-11-11T00:23:31;135.93;;;129.00;;
2476;SDS011;1249;51.270;6.756;2022-11-11T00:26:16;124.27;;;117.27;;
2476;SDS011;1249;51.270;6.756;2022-11-11T00:28:44;130.10;;;122.33;;
2476;SDS011;1249;51.270;6.756;2022-11-11T00:31:11;149.53;;;140.47;;
2476;SDS011;1249;51.270;6.756;2022-11-11T00:33:39;132.23;;;124.20;;
2476;SDS011;1249;51.270;6.756;2022-11-11T00:36:06;109.13;;;102.23;;
2476;SDS011;1249;51.270;6.756;2022-11-11T00:38:32;119.80;;;113.53;;
2476;SDS011;1249;51.270;6.756;2022-11-11T00:41:12;139.53;;;131.73;;
2476;SDS011;1249;51.270;6.756;2022-11-11T00:43:42;122.27;;;114.73;;
2476;SDS011;1249;51.270;6.756;2022-11-11T00:46:10;146.00;;;138.07;;
2476;SDS011;1249;51.270;6.756;2022-11-11T00:48:55;141.60;;;133.33;;
2476;SDS011;1249;51.270;6.756;2022-11-11T00:51:39;139.60;;;131.57;;
2476;SDS011;1249;51.270;6.756;2022-11-11T00:54:06;103.00;;;96.70;;
2476;SDS011;1249;51.270;6.756;2022-11-11T00:56:33;119.33;;;113.17;;
2476;SDS011;1249;51.270;6.756;2022-11-11T00:59:02;129.50;;;122.27;;
2476;SDS011;1249;51.270;6.756;2022-11-11T01:01:30;120.50;;;113.73;;
2476;SDS011;1249;51.270;6.756;2022-11-11T01:03:57;129.37;;;121.00;;
2476;SDS011;1249;51.270;6.756;2022-11-11T01:06:24;107.83;;;101.33;;
2476;SDS011;1249;51.270;6.756;2022-11-11T01:08:51;130.43;;;122.70;;
2476;SDS011;1249;51.270;6.756;2022-11-11T01:11:19;134.17;;;126.00;;
2476;SDS011;1249;51.270;6.756;2022-11-11T01:13:47;174.47;;;165.97;;
2476;SDS011;1249;51.270;6.756;2022-11-11T01:16:16;141.63;;;134.27;;
2476;SDS011;1249;51.270;6.756;2022-11-11T01:18:44;128.30;;;120.20;;
2476;SDS011;1249;51.270;6.756;2022-11-11T01:21:12;130.10;;;123.10;;
2476;SDS011;1249;51.270;6.756;2022-11-11T01:23:40;122.67;;;115.57;;
2476;SDS011;1249;51.270;6.756;2022-11-11T01:26:10;142.50;;;134.27;;
2476;SDS011;1249;51.270;6.756;2022-11-11T01:28:39;126.13;;;118.90;;
2476;SDS011;1249;51.270;6.756;2022-11-11T01:31:08;103.23;;;96.70;;
2476;SDS011;1249;51.270;6.756;2022-11-11T01:33:38;130.07;;;122.57;;
2476;SDS011;1249;51.270;6.756;2022-11-11T01:36:06;114.40;;;107.97;;
2476;SDS011;1249;51.270;6.756;2022-11-11T01:38:34;121.43;;;114.57;;
2476;SDS011;1249;51.270;6.756;2022-11-11T01:41:01;169.53;;;160.13;;
2476;SDS011;1249;51.270;6.756;2022-11-11T01:43:49;135.73;;;128.07;;
2476;SDS011;1249;51.270;6.756;2022-11-11T01:46:18;130.83;;;123.40;;
2476;SDS011;1249;51.270;6.756;2022-11-11T01:48:53;125.23;;;117.53;;
2476;SDS011;1249;51.270;6.756;2022-11-11T01:51:40;144.97;;;136.33;;
2476;SDS011;1249;51.270;6.756;2022-11-11T01:54:11;127.53;;;120.47;;
2476;SDS011;1249;51.270;6.756;2022-11-11T01:56:41;114.90;;;107.63;;
2476;SDS011;1249;51.270;6.756;2022-11-11T01:59:12;169.43;;;159.97;;
2476;SDS011;1249;51.270;6.756;2022-11-11T02:01:41;137.30;;;129.67;;
2476;SDS011;1249;51.270;6.756;2022-11-11T02:04:10;114.10;;;107.93;;
2476;SDS011;1249;51.270;6.756;2022-11-11T02:06:56;120.17;;;113.17;;
2476;SDS011;1249;51.270;6.756;2022-11-11T02:09:25;139.53;;;131.30;;
2476;SDS011;1249;51.270;6.756;2022-11-11T02:11:53;102.67;;;95.47;;
2476;SDS011;1249;51.270;6.756;2022-11-11T02:14:41;124.30;;;116.67;;
2476;SDS011;1249;51.270;6.756;2022-11-11T02:17:11;138.73;;;131.50;;
2476;SDS011;1249;51.270;6.756;2022-11-11T02:19:43;124.57;;;117.47;;
2476;SDS011;1249;51.270;6.756;2022-11-11T02:22:15;117.07;;;110.53;;
2476;SDS011;1249;51.270;6.756;2022-11-11T02:24:49;129.10;;;122.43;;
2476;SDS011;1249;51.270;6.756;2022-11-11T02:27:19;118.17;;;111.03;;
2476;SDS011;1249;51.270;6.756;2022-11-11T02:29:48;131.53;;;124.30;;
2476;SDS011;1249;51.270;6.756;2022-11-11T02:32:17;123.13;;;116.00;;
2476;SDS011;1249;51.270;6.756;2022-11-11T02:34:44;141.20;;;132.87;;
2476;SDS011;1249;51.270;6.756;2022-11-11T02:37:10;106.67;;;100.27;;
2476;SDS011;1249;51.270;6.756;2022-11-11T02:39:41;124.07;;;116.50;;
2476;SDS011;1249;51.270;6.756;2022-11-11T02:42:12;124.80;;;116.60;;
2476;SDS011;1249;51.270;6.756;2022-11-11T02:44:41;116.60;;;109.93;;
2476;SDS011;1249;51.270;6.756;2022-11-11T02:47:08;128.27;;;120.37;;
2476;SDS011;1249;51.270;6.756;2022-11-11T02:49:35;161.90;;;153.33;;
2476;SDS011;1249;51.270;6.756;2022-11-11T02:52:02;123.57;;;116.50;;
2476;SDS011;1249;51.270;6.756;2022-11-11T02:54:29;143.70;;;134.53;;
2476;SDS011;1249;51.270;6.756;2022-11-11T02:56:55;120.40;;;113.57;;
2476;SDS011;1249;51.270;6.756;2022-11-11T02:59:36;135.00;;;128.33;;
2476;SDS011;1249;51.270;6.756;2022-11-11T03:02:05;127.97;;;119.20;;
2476;SDS011;1249;51.270;6.756;2022-11-11T03:04:33;126.17;;;118.23;;
2476;SDS011;1249;51.270;6.756;2022-11-11T03:07:01;127.73;;;120.03;;
2476;SDS011;1249;51.270;6.756;2022-11-11T03:09:28;126.57;;;120.47;;
2476;SDS011;1249;51.270;6.756;2022-11-11T03:11:55;133.03;;;126.30;;
2476;SDS011;1249;51.270;6.756;2022-11-11T03:14:22;127.70;;;121.17;;
2476;SDS011;1249;51.270;6.756;2022-11-11T03:16:50;117.63;;;110.63;;
2476;SDS011;1249;51.270;6.756;2022-11-11T03:19:35;109.33;;;101.53;;
2476;SDS011;1249;51.270;6.756;2022-11-11T03:22:02;118.43;;;111.03;;
2476;SDS011;1249;51.270;6.756;2022-11-11T03:24:27;111.53;;;104.57;;
2476;SDS011;1249;51.270;6.756;2022-11-11T03:27:15;129.37;;;121.40;;
2476;SDS011;1249;51.270;6.756;2022-11-11T03:29:40;152.93;;;143.20;;
2476;SDS011;1249;51.270;6.756;2022-11-11T03:34:34;120.70;;;113.30;;
2476;SDS011;1249;51.270;6.756;2022-11-11T03:37:14;143.63;;;135.67;;
2476;SDS011;1249;51.270;6.756;2022-11-11T03:40:01;123.70;;;116.40;;
2476;SDS011;1249;51.270;6.756;2022-11-11T03:42:38;165.83;;;156.77;;
2476;SDS011;1249;51.270;6.756;2022-11-11T03:45:07;144.93;;;136.63;;
2476;SDS011;1249;51.270;6.756;2022-11-11T03:47:34;120.73;;;114.50;;
2476;SDS011;1249;51.270;6.756;2022-11-11T03:50:03;120.03;;;113.10;;
2476;SDS011;1249;51.270;6.756;2022-11-11T03:52:58;117.93;;;110.60;;
2476;SDS011;1249;51.270;6.756;2022-11-11T03:55:42;125.37;;;118.63;;
2476;SDS011;1249;51.270;6.756;2022-11-11T03:58:10;147.50;;;139.47;;
2476;SDS011;1249;51.270;6.756;2022-11-11T04:00:37;128.13;;;120.07;;
2476;SDS011;1249;51.270;6.756;2022-11-11T04:03:20;136.87;;;128.47;;
2476;SDS011;1249;51.270;6.756;2022-11-11T04:06:12;133.17;;;125.57;;
2476;SDS011;1249;51.270;6.756;2022-11-11T04:09:02;132.13;;;123.60;;
2476;SDS011;1249;51.270;6.756;2022-11-11T04:11:50;112.57;;;105.77;;
2476;SDS011;1249;51.270;6.756;2022-11-11T04:14:18;136.63;;;128.87;;
2476;SDS011;1249;51.270;6.756;2022-11-11T04:17:06;139.60;;;131.73;;
2476;SDS011;1249;51.270;6.756;2022-11-11T04:19:38;133.30;;;125.60;;
2476;SDS011;1249;51.270;6.756;2022-11-11T04:22:30;129.90;;;121.63;;
2476;SDS011;1249;51.270;6.756;2022-11-11T04:25:01;137.03;;;129.13;;
2476;SDS011;1249;51.270;6.756;2022-11-11T04:27:45;120.43;;;114.17;;
2476;SDS011;1249;51.270;6.756;2022-11-11T04:30:32;158.37;;;149.60;;
2476;SDS011;1249;51.270;6.756;2022-11-11T04:32:58;127.07;;;119.43;;
2476;SDS011;1249;51.270;6.756;2022-11-11T04:35:47;115.63;;;108.17;;
2476;SDS011;1249;51.270;6.756;2022-11-11T04:38:16;155.60;;;146.77;;
2476;SDS011;1249;51.270;6.756;2022-11-11T04:41:00;119.07;;;111.87;;
2476;SDS011;1249;51.270;6.756;2022-11-11T04:43:35;123.00;;;116.03;;
2476;SDS011;1249;51.270;6.756;2022-11-11T04:46:21;154.57;;;146.03;;
2476;SDS011;1249;51.270;6.756;2022-11-11T04:48:52;128.50;;;120.40;;
2476;SDS011;1249;51.270;6.756;2022-11-11T04:51:28;120.63;;;114.20;;
2476;SDS011;1249;51.270;6.756;2022-11-11T04:54:26;149.63;;;141.87;;
2476;SDS011;1249;51.270;6.756;2022-11-11T05:00:18;109.53;;;103.20;;
2476;SDS011;1249;51.270;6.756;2022-11-11T05:02:53;151.53;;;143.30;;
2476;SDS011;1249;51.270;6.756;2022-11-11T05:05:40;156.27;;;147.33;;
2476;SDS011;1249;51.270;6.756;2022-11-11T05:08:34;124.37;;;117.30;;
2476;SDS011;1249;51.270;6.756;2022-11-11T05:14:36;116.93;;;110.90;;
2476;SDS011;1249;51.270;6.756;2022-11-11T05:17:23;96.50;;;89.47;;
2476;SDS011;1249;51.270;6.756;2022-11-11T05:20:09;130.20;;;122.30;;
2476;SDS011;1249;51.270;6.756;2022-11-11T05:22:53;113.77;;;106.70;;
2476;SDS011;1249;51.270;6.756;2022-11-11T05:25:22;135.40;;;127.47;;
2476;SDS011;1249;51.270;6.756;2022-11-11T05:27:52;116.40;;;109.63;;
2476;SDS011;1249;51.270;6.756;2022-11-11T05:30:28;123.47;;;115.90;;
2476;SDS011;1249;51.270;6.756;2022-11-11T05:32:55;144.47;;;136.63;;
2476;SDS011;1249;51.270;6.756;2022-11-11T05:35:39;114.43;;;107.50;;
2476;SDS011;1249;51.270;6.756;2022-11-11T05:38:18;118.50;;;111.80;;
2476;SDS011;1249;51.270;6.756;2022-11-11T05:40:56;140.20;;;132.07;;
2476;SDS011;1249;51.270;6.756;2022-11-11T05:43:33;125.33;;;118.20;;
2476;SDS011;1249;51.270;6.756;2022-11-11T05:46:14;108.63;;;102.77;;
2476;SDS011;1249;51.270;6.756;2022-11-11T05:48:41;122.37;;;114.57;;
2476;SDS011;1249;51.270;6.756;2022-11-11T05:51:25;121.97;;;114.77;;
2476;SDS011;1249;51.270;6.756;2022-11-11T05:53:59;119.73;;;112.60;;
2476;SDS011;1249;51.270;6.756;2022-11-11T05:56:26;112.33;;;105.47;;
2476;SDS011;1249;51.270;6.756;2022-11-11T05:59:03;103.43;;;97.83;;
2476;SDS011;1249;51.270;6.756;2022-11-11T06:01:46;124.53;;;117.23;;
2476;SDS011;1249;51.270;6.756;2022-11-11T06:04:17;136.13;;;128.50;;
2476;SDS011;1249;51.270;6.756;2022-11-11T06:06:44;123.70;;;116.47;;
2476;SDS011;1249;51.270;6.756;2022-11-11T06:09:14;137.70;;;130.27;;
2476;SDS011;1249;51.270;6.756;2022-11-11T06:11:44;163.93;;;155.20;;
2476;SDS011;1249;51.270;6.756;2022-11-11T06:14:15;142.67;;;134.73;;
2476;SDS011;1249;51.270;6.756;2022-11-11T06:16:41;103.67;;;97.37;;
2476;SDS011;1249;51.270;6.756;2022-11-11T06:19:08;94.60;;;89.67;;
2476;SDS011;1249;51.270;6.756;2022-11-11T06:21:43;46.47;;;43.50;;
2476;SDS011;1249;51.270;6.756;2022-11-11T06:24:28;83.77;;;78.67;;
2476;SDS011;1249;51.270;6.756;2022-11-11T06:26:58;20.93;;;15.87;;
2476;SDS011;1249;51.270;6.756;2022-11-11T06:29:29;13.37;;;9.10;;
2476;SDS011;1249;51.270;6.756;2022-11-11T06:32:12;19.00;;;17.27;;
2476;SDS011;1249;51.270;6.756;2022-11-11T06:34:42;16.67;;;14.93;;
2476;SDS011;1249;51.270;6.756;2022-11-11T06:37:12;24.83;;;23.30;;
2476;SDS011;1249;51.270;6.756;2022-11-11T06:39:45;19.83;;;18.23;;
2476;SDS011;1249;51.270;6.756;2022-11-11T06:42:14;23.13;;;20.97;;
2476;SDS011;1249;51.270;6.756;2022-11-11T06:44:43;23.70;;;22.10;;
2476;SDS011;1249;51.270;6.756;2022-11-11T06:47:10;20.23;;;18.50;;
2476;SDS011;1249;51.270;6.756;2022-11-11T06:49:37;20.00;;;14.17;;
2476;SDS011;1249;51.270;6.756;2022-11-11T06:52:04;14.47;;;12.47;;
2476;SDS011;1249;51.270;6.756;2022-11-11T06:54:31;17.93;;;16.43;;
2476;SDS011;1249;51.270;6.756;2022-11-11T06:57:03;26.67;;;24.13;;
2476;SDS011;1249;51.270;6.756;2022-11-11T06:59:31;26.40;;;24.10;;
2476;SDS011;1249;51.270;6.756;2022-11-11T07:02:04;25.43;;;22.27;;
2476;SDS011;1249;51.270;6.756;2022-11-11T07:04:30;23.03;;;21.57;;
2476;SDS011;1249;51.270;6.756;2022-11-11T07:06:57;21.40;;;19.40;;
2476;SDS011;1249;51.270;6.756;2022-11-11T07:09:24;17.90;;;15.90;;
2476;SDS011;1249;51.270;6.756;2022-11-11T07:11:52;29.57;;;26.83;;
2476;SDS011;1249;51.270;6.756;2022-11-11T07:14:19;32.10;;;29.60;;
2476;SDS011;1249;51.270;6.756;2022-11-11T07:16:49;29.37;;;27.27;;
2476;SDS011;1249;51.270;6.756;2022-11-11T07:19:19;32.07;;;29.93;;
2476;SDS011;1249;51.270;6.756;2022-11-11T07:21:46;20.17;;;18.80;;
2476;SDS011;1249;51.270;6.756;2022-11-11T07:24:23;17.77;;;16.27;;
2476;SDS011;1249;51.270;6.756;2022-11-11T07:26:50;30.73;;;28.23;;
2476;SDS011;1249;51.270;6.756;2022-11-11T07:29:18;29.47;;;26.90;;
2476;SDS011;1249;51.270;6.756;2022-11-11T07:31:45;28.07;;;26.40;;
2476;SDS011;1249;51.270;6.756;2022-11-11T07:34:12;44.37;;;41.47;;
2476;SDS011;1249;51.270;6.756;2022-11-11T07:36:46;29.83;;;26.63;;
2476;SDS011;1249;51.270;6.756;2022-11-11T07:39:13;35.73;;;33.57;;
2476;SDS011;1249;51.270;6.756;2022-11-11T07:41:50;22.83;;;21.07;;
2476;SDS011;1249;51.270;6.756;2022-11-11T07:44:28;32.03;;;29.07;;
2476;SDS011;1249;51.270;6.756;2022-11-11T07:47:02;37.70;;;34.47;;
2476;SDS011;1249;51.270;6.756;2022-11-11T07:49:40;35.67;;;33.43;;
2476;SDS011;1249;51.270;6.756;2022-11-11T07:52:19;20.03;;;15.53;;
2476;SDS011;1249;51.270;6.756;2022-11-11T07:54:50;37.87;;;35.47;;
2476;SDS011;1249;51.270;6.756;2022-11-11T07:57:31;28.80;;;26.90;;
2476;SDS011;1249;51.270;6.756;2022-11-11T08:00:05;33.90;;;31.33;;
2476;SDS011;1249;51.270;6.756;2022-11-11T08:02:33;43.60;;;40.70;;
2476;SDS011;1249;51.270;6.756;2022-11-11T08:05:06;40.77;;;37.57;;
2476;SDS011;1249;51.270;6.756;2022-11-11T08:07:47;41.83;;;39.20;;
2476;SDS011;1249;51.270;6.756;2022-11-11T08:10:14;45.83;;;43.07;;
2476;SDS011;1249;51.270;6.756;2022-11-11T08:12:40;51.40;;;48.10;;
2476;SDS011;1249;51.270;6.756;2022-11-11T08:15:28;48.73;;;45.23;;
2476;SDS011;1249;51.270;6.756;2022-11-11T08:18:01;49.63;;;45.90;;
2476;SDS011;1249;51.270;6.756;2022-11-11T08:24:00;37.90;;;35.00;;
2476;SDS011;1249;51.270;6.756;2022-11-11T08:26:29;32.30;;;29.50;;
2476;SDS011;1249;51.270;6.756;2022-11-11T08:28:56;58.77;;;55.53;;
2476;SDS011;1249;51.270;6.756;2022-11-11T08:31:23;80.47;;;75.97;;
2476;SDS011;1249;51.270;6.756;2022-11-11T08:33:50;77.60;;;72.67;;
2476;SDS011;1249;51.270;6.756;2022-11-11T08:36:17;57.17;;;54.30;;
2476;SDS011;1249;51.270;6.756;2022-11-11T08:38:44;77.00;;;72.07;;
2476;SDS011;1249;51.270;6.756;2022-11-11T08:41:12;61.00;;;57.50;;
2476;SDS011;1249;51.270;6.756;2022-11-11T08:43:39;54.13;;;50.23;;
2476;SDS011;1249;51.270;6.756;2022-11-11T08:46:05;87.90;;;83.23;;
2476;SDS011;1249;51.270;6.756;2022-11-11T08:48:32;78.70;;;73.77;;
2476;SDS011;1249;51.270;6.756;2022-11-11T08:50:59;66.20;;;61.60;;
2476;SDS011;1249;51.270;6.756;2022-11-11T08:53:26;92.90;;;87.83;;
2476;SDS011;1249;51.270;6.756;2022-11-11T08:55:53;120.23;;;114.03;;
2476;SDS011;1249;51.270;6.756;2022-11-11T08:58:21;87.07;;;82.13;;
2476;SDS011;1249;51.270;6.756;2022-11-11T09:00:48;86.50;;;81.93;;
2476;SDS011;1249;51.270;6.756;2022-11-11T09:03:15;97.40;;;92.57;;
2476;SDS011;1249;51.270;6.756;2022-11-11T09:05:42;96.07;;;90.40;;
2476;SDS011;1249;51.270;6.756;2022-11-11T09:08:11;98.97;;;93.70;;
2476;SDS011;1249;51.270;6.756;2022-11-11T09:10:38;101.63;;;96.40;;
2476;SDS011;1249;51.270;6.756;2022-11-11T09:13:05;107.47;;;101.77;;
2476;SDS011;1249;51.270;6.756;2022-11-11T09:15:33;115.67;;;109.50;;
2476;SDS011;1249;51.270;6.756;2022-11-11T09:18:00;84.00;;;78.30;;
2476;SDS011;1249;51.270;6.756;2022-11-11T09:20:27;98.23;;;91.33;;
2476;SDS011;1249;51.270;6.756;2022-11-11T09:22:54;119.33;;;113.13;;
2476;SDS011;1249;51.270;6.756;2022-11-11T09:25:21;79.53;;;74.17;;
2476;SDS011;1249;51.270;6.756;2022-11-11T09:27:54;90.60;;;86.07;;
2476;SDS011;1249;51.270;6.756;2022-11-11T09:30:21;83.03;;;78.60;;
2476;SDS011;1249;51.270;6.756;2022-11-11T09:32:50;91.40;;;85.33;;
2476;SDS011;1249;51.270;6.756;2022-11-11T09:35:17;105.57;;;99.93;;
2476;SDS011;1249;51.270;6.756;2022-11-11T09:37:54;95.63;;;89.97;;
2476;SDS011;1249;51.270;6.756;2022-11-11T09:40:22;106.53;;;100.67;;
2476;SDS011;1249;51.270;6.756;2022-11-11T09:42:53;88.70;;;84.13;;
2476;SDS011;1249;51.270;6.756;2022-11-11T09:45:29;80.70;;;75.40;;
2476;SDS011;1249;51.270;6.756;2022-11-11T09:48:07;87.33;;;82.23;;
2476;SDS011;1249;51.270;6.756;2022-11-11T09:50:51;95.10;;;90.10;;
2476;SDS011;1249;51.270;6.756;2022-11-11T09:53:23;107.47;;;101.80;;
2476;SDS011;1249;51.270;6.756;2022-11-11T09:55:55;105.27;;;99.93;;
2476;SDS011;1249;51.270;6.756;2022-11-11T09:58:28;71.47;;;67.57;;
2476;SDS011;1249;51.270;6.756;2022-11-11T10:00:59;93.50;;;88.20;;
2476;SDS011;1249;51.270;6.756;2022-11-11T10:03:32;107.53;;;101.37;;
2476;SDS011;1249;51.270;6.756;2022-11-11T10:06:05;100.27;;;94.53;;
2476;SDS011;1249;51.270;6.756;2022-11-11T10:08:35;93.53;;;88.00;;
2476;SDS011;1249;51.270;6.756;2022-11-11T10:11:10;93.10;;;87.70;;
2476;SDS011;1249;51.270;6.756;2022-11-11T10:13:41;110.23;;;103.63;;
2476;SDS011;1249;51.270;6.756;2022-11-11T10:16:08;105.40;;;99.20;;
2476;SDS011;1249;51.270;6.756;2022-11-11T10:18:48;107.47;;;101.77;;
2476;SDS011;1249;51.270;6.756;2022-11-11T10:21:27;75.53;;;71.67;;
2476;SDS011;1249;51.270;6.756;2022-11-11T10:24:03;126.63;;;119.97;;
2476;SDS011;1249;51.270;6.756;2022-11-11T10:26:37;111.97;;;105.63;;
2476;SDS011;1249;51.270;6.756;2022-11-11T10:29:09;130.83;;;122.93;;
2476;SDS011;1249;51.270;6.756;2022-11-11T10:31:40;121.07;;;114.53;;
2476;SDS011;1249;51.270;6.756;2022-11-11T10:34:09;123.13;;;115.83;;
2476;SDS011;1249;51.270;6.756;2022-11-11T10:36:41;122.47;;;116.10;;
2476;SDS011;1249;51.270;6.756;2022-11-11T10:39:10;134.40;;;126.73;;
2476;SDS011;1249;51.270;6.756;2022-11-11T10:41:42;94.03;;;88.60;;
2476;SDS011;1249;51.270;6.756;2022-11-11T10:44:19;98.60;;;93.40;;
2476;SDS011;1249;51.270;6.756;2022-11-11T10:46:50;96.67;;;91.37;;
2476;SDS011;1249;51.270;6.756;2022-11-11T10:49:23;133.70;;;126.57;;
2476;SDS011;1249;51.270;6.756;2022-11-11T10:51:54;99.03;;;93.53;;
2476;SDS011;1249;51.270;6.756;2022-11-11T10:54:28;109.50;;;103.43;;
2476;SDS011;1249;51.270;6.756;2022-11-11T10:57:00;110.70;;;104.10;;
2476;SDS011;1249;51.270;6.756;2022-11-11T10:59:34;148.47;;;140.63;;
2476;SDS011;1249;51.270;6.756;2022-11-11T11:02:08;142.53;;;134.57;;
2476;SDS011;1249;51.270;6.756;2022-11-11T11:04:45;106.80;;;100.70;;
2476;SDS011;1249;51.270;6.756;2022-11-11T11:07:16;141.97;;;133.53;;
2476;SDS011;1249;51.270;6.756;2022-11-11T11:09:48;111.50;;;104.87;;
2476;SDS011;1249;51.270;6.756;2022-11-11T11:12:21;113.53;;;107.80;;
2476;SDS011;1249;51.270;6.756;2022-11-11T11:14:53;114.17;;;108.10;;
2476;SDS011;1249;51.270;6.756;2022-11-11T11:17:26;124.43;;;117.73;;
2476;SDS011;1249;51.270;6.756;2022-11-11T11:20:07;113.70;;;106.83;;
2476;SDS011;1249;51.270;6.756;2022-11-11T11:22:46;126.57;;;119.13;;
2476;SDS011;1249;51.270;6.756;2022-11-11T11:25:15;117.30;;;110.97;;
2476;SDS011;1249;51.270;6.756;2022-11-11T11:27:43;117.37;;;111.60;;
2476;SDS011;1249;51.270;6.756;2022-11-11T11:30:12;142.87;;;135.27;;
2476;SDS011;1249;51.270;6.756;2022-11-11T11:32:40;107.43;;;100.97;;
2476;SDS011;1249;51.270;6.756;2022-11-11T11:35:11;107.67;;;101.27;;
2476;SDS011;1249;51.270;6.756;2022-11-11T11:37:55;115.00;;;108.70;;
2476;SDS011;1249;51.270;6.756;2022-11-11T11:40:22;125.37;;;117.93;;
2476;SDS011;1249;51.270;6.756;2022-11-11T11:42:49;111.07;;;104.47;;
2476;SDS011;1249;51.270;6.756;2022-11-11T11:45:19;132.10;;;124.60;;
2476;SDS011;1249;51.270;6.756;2022-11-11T11:48:01;105.77;;;100.17;;
2476;SDS011;1249;51.270;6.756;2022-11-11T11:50:45;110.10;;;104.03;;
2476;SDS011;1249;51.270;6.756;2022-11-11T11:53:31;114.00;;;107.43;;
2476;SDS011;1249;51.270;6.756;2022-11-11T11:56:14;140.50;;;132.53;;
2476;SDS011;1249;51.270;6.756;2022-11-11T11:58:53;127.10;;;119.60;;
2476;SDS011;1249;51.270;6.756;2022-11-11T12:01:25;94.77;;;89.43;;
2476;SDS011;1249;51.270;6.756;2022-11-11T12:04:11;100.50;;;94.80;;
2476;SDS011;1249;51.270;6.756;2022-11-11T12:07:13;116.83;;;110.97;;
2476;SDS011;1249;51.270;6.756;2022-11-11T12:10:02;100.23;;;94.60;;
2476;SDS011;1249;51.270;6.756;2022-11-11T12:12:43;132.20;;;124.73;;
2476;SDS011;1249;51.270;6.756;2022-11-11T12:15:27;113.13;;;106.70;;
2476;SDS011;1249;51.270;6.756;2022-11-11T12:18:14;145.20;;;137.20;;
2476;SDS011;1249;51.270;6.756;2022-11-11T12:21:03;106.33;;;99.83;;
2476;SDS011;1249;51.270;6.756;2022-11-11T12:26:48;115.70;;;108.47;;
2476;SDS011;1249;51.270;6.756;2022-11-11T12:29:31;130.27;;;122.07;;
2476;SDS011;1249;51.270;6.756;2022-11-11T12:32:23;127.77;;;121.03;;
2476;SDS011;1249;51.270;6.756;2022-11-11T12:35:19;130.47;;;123.53;;
2476;SDS011;1249;51.270;6.756;2022-11-11T12:38:00;121.93;;;114.27;;
2476;SDS011;1249;51.270;6.756;2022-11-11T12:40:48;132.43;;;125.43;;
2476;SDS011;1249;51.270;6.756;2022-11-11T12:43:30;91.70;;;86.07;;
2476;SDS011;1249;51.270;6.756;2022-11-11T12:46:11;146.00;;;137.53;;
2476;SDS011;1249;51.270;6.756;2022-11-11T12:49:01;112.60;;;105.43;;
2476;SDS011;1249;51.270;6.756;2022-11-11T12:51:44;135.00;;;127.60;;
2476;SDS011;1249;51.270;6.756;2022-11-11T12:54:33;113.03;;;107.03;;
2476;SDS011;1249;51.270;6.756;2022-11-11T12:57:14;102.97;;;96.67;;
2476;SDS011;1249;51.270;6.756;2022-11-11T13:00:00;131.37;;;123.70;;
2476;SDS011;1249;51.270;6.756;2022-11-11T13:02:40;133.10;;;125.03;;
2476;SDS011;1249;51.270;6.756;2022-11-11T13:05:20;115.57;;;109.23;;
2476;SDS011;1249;51.270;6.756;2022-11-11T13:07:58;123.83;;;116.57;;
2476;SDS011;1249;51.270;6.756;2022-11-11T13:10:38;101.50;;;95.33;;
2476;SDS011;1249;51.270;6.756;2022-11-11T13:13:19;111.90;;;105.47;;
2476;SDS011;1249;51.270;6.756;2022-11-11T13:15:59;100.27;;;94.47;;
2476;SDS011;1249;51.270;6.756;2022-11-11T13:18:27;113.40;;;106.93;;
2476;SDS011;1249;51.270;6.756;2022-11-11T13:21:02;112.60;;;106.00;;
2476;SDS011;1249;51.270;6.756;2022-11-11T13:23:32;89.33;;;83.33;;
2476;SDS011;1249;51.270;6.756;2022-11-11T13:26:00;118.90;;;112.63;;
2476;SDS011;1249;51.270;6.756;2022-11-11T13:28:32;109.13;;;102.63;;
2476;SDS011;1249;51.270;6.756;2022-11-11T13:31:14;112.83;;;106.63;;
2476;SDS011;1249;51.270;6.756;2022-11-11T13:33:48;114.93;;;108.57;;
2476;SDS011;1249;51.270;6.756;2022-11-11T13:36:18;97.13;;;90.70;;
2476;SDS011;1249;51.270;6.756;2022-11-11T13:38:47;113.70;;;107.83;;
2476;SDS011;1249;51.270;6.756;2022-11-11T13:41:21;127.97;;;121.20;;
2476;SDS011;1249;51.270;6.756;2022-11-11T13:43:52;120.50;;;113.93;;
2476;SDS011;1249;51.270;6.756;2022-11-11T13:46:28;98.10;;;92.17;;
2476;SDS011;1249;51.270;6.756;2022-11-11T13:48:58;107.13;;;100.43;;
2476;SDS011;1249;51.270;6.756;2022-11-11T13:51:29;82.70;;;78.23;;
2476;SDS011;1249;51.270;6.756;2022-11-11T13:54:00;94.60;;;88.30;;
2476;SDS011;1249;51.270;6.756;2022-11-11T13:56:33;92.53;;;87.50;;
2476;SDS011;1249;51.270;6.756;2022-11-11T13:59:04;86.73;;;81.73;;
2476;SDS011;1249;51.270;6.756;2022-11-11T14:01:33;79.63;;;74.87;;
2476;SDS011;1249;51.270;6.756;2022-11-11T14:04:02;78.30;;;73.40;;
2476;SDS011;1249;51.270;6.756;2022-11-11T14:12:19;64.93;;;60.63;;
2476;SDS011;1249;51.270;6.756;2022-11-11T14:14:56;67.53;;;63.37;;
2476;SDS011;1249;51.270;6.756;2022-11-11T14:17:22;61.90;;;57.60;;
2476;SDS011;1249;51.270;6.756;2022-11-11T14:19:50;78.90;;;73.50;;
2476;SDS011;1249;51.270;6.756;2022-11-11T14:25:17;65.90;;;61.63;;
2476;SDS011;1249;51.270;6.756;2022-11-11T14:27:47;67.03;;;63.00;;
2476;SDS011;1249;51.270;6.756;2022-11-11T14:30:36;51.57;;;48.40;;
2476;SDS011;1249;51.270;6.756;2022-11-11T14:33:06;71.30;;;67.17;;
2476;SDS011;1249;51.270;6.756;2022-11-11T14:35:47;47.60;;;44.30;;
2476;SDS011;1249;51.270;6.756;2022-11-11T14:38:26;64.90;;;60.93;;
2476;SDS011;1249;51.270;6.756;2022-11-11T14:47:31;75.33;;;70.60;;
2476;SDS011;1249;51.270;6.756;2022-11-11T14:50:00;63.53;;;59.70;;
2476;SDS011;1249;51.270;6.756;2022-11-11T14:52:29;70.83;;;65.93;;
2476;SDS011;1249;51.270;6.756;2022-11-11T14:55:07;73.10;;;68.60;;
2476;SDS011;1249;51.270;6.756;2022-11-11T14:57:38;75.57;;;70.40;;
2476;SDS011;1249;51.270;6.756;2022-11-11T15:00:09;66.73;;;61.90;;
2476;SDS011;1249;51.270;6.756;2022-11-11T15:02:44;68.23;;;64.40;;
2476;SDS011;1249;51.270;6.756;2022-11-11T15:05:17;58.13;;;54.10;;
2476;SDS011;1249;51.270;6.756;2022-11-11T15:07:58;70.27;;;66.40;;
2476;SDS011;1249;51.270;6.756;2022-11-11T15:10:42;51.70;;;48.17;;
2476;SDS011;1249;51.270;6.756;2022-11-11T15:13:48;74.43;;;70.33;;
2476;SDS011;1249;51.270;6.756;2022-11-11T15:16:29;43.00;;;39.47;;
2476;SDS011;1249;51.270;6.756;2022-11-11T15:19:12;50.07;;;46.00;;
2476;SDS011;1249;51.270;6.756;2022-11-11T15:21:48;42.27;;;38.60;;
2476;SDS011;1249;51.270;6.756;2022-11-11T15:24:29;66.90;;;62.90;;
2476;SDS011;1249;51.270;6.756;2022-11-11T15:27:03;62.73;;;58.47;;
2476;SDS011;1249;51.270;6.756;2022-11-11T15:29:46;49.43;;;45.97;;
2476;SDS011;1249;51.270;6.756;2022-11-11T15:34:55;42.33;;;38.87;;
2476;SDS011;1249;51.270;6.756;2022-11-11T15:37:27;43.73;;;40.90;;
2476;SDS011;1249;51.270;6.756;2022-11-11T15:40:03;63.83;;;59.53;;
2476;SDS011;1249;51.270;6.756;2022-11-11T15:42:43;50.10;;;44.90;;